createdAt,value
2022-09-09T00:01:31.577Z,1.30
2022-09-09T00:04:37.250Z,1.87
2022-09-09T00:07:46.209Z,1.33
2022-09-09T00:10:59.804Z,1.12
2022-09-09T00:14:09.307Z,1.27
2022-09-09T00:17:37.522Z,1.40
2022-09-09T00:20:48.380Z,1.45
2022-09-09T00:23:55.808Z,1.65
2022-09-09T00:27:07.676Z,1.20
2022-09-09T00:30:20.645Z,1.17
2022-09-09T00:33:27.590Z,1.30
2022-09-09T00:36:34.455Z,1.30
2022-09-09T00:39:48.818Z,1.40
2022-09-09T00:43:03.828Z,1.37
2022-09-09T00:46:30.110Z,1.50
2022-09-09T00:49:45.196Z,1.27
2022-09-09T00:53:09.377Z,1.45
2022-09-09T00:56:24.523Z,1.55
2022-09-09T00:59:47.783Z,1.23
2022-09-09T01:03:12.699Z,1.40
2022-09-09T01:06:32.234Z,1.70
2022-09-09T01:09:55.796Z,1.87
2022-09-09T01:13:06.447Z,1.52
2022-09-09T01:16:14.847Z,2.80
2022-09-09T01:19:34.883Z,2.35
2022-09-09T01:22:59.336Z,1.83
2022-09-09T01:26:24.954Z,1.77
2022-09-09T01:29:28.630Z,2.20
2022-09-09T01:32:45.595Z,4.05
2022-09-09T01:35:57.275Z,2.30
2022-09-09T01:39:01.030Z,3.35
2022-09-09T01:42:07.425Z,2.03
2022-09-09T01:45:10.616Z,2.00
2022-09-09T01:48:13.567Z,1.90
2022-09-09T01:51:16.642Z,1.80
2022-09-09T01:54:22.874Z,1.80
2022-09-09T01:57:31.909Z,2.37
2022-09-09T02:00:40.983Z,1.65
2022-09-09T02:06:55.200Z,1.90
2022-09-09T02:10:16.258Z,1.85
2022-09-09T02:13:22.612Z,2.00
2022-09-09T02:16:33.856Z,2.35
2022-09-09T02:19:43.104Z,2.20
2022-09-09T02:22:50.563Z,2.58
2022-09-09T02:25:55.700Z,2.80
2022-09-09T02:29:02.558Z,2.42
2022-09-09T02:32:10.474Z,2.60
2022-09-09T02:35:18.996Z,2.50
2022-09-09T02:38:25.642Z,2.62
2022-09-09T02:41:33.396Z,2.78
2022-09-09T02:44:37.327Z,2.37
2022-09-09T02:48:04.764Z,2.78
2022-09-09T02:51:20.281Z,2.75
2022-09-09T02:54:32.255Z,2.90
2022-09-09T02:57:37.456Z,3.17
2022-09-09T03:00:41.849Z,2.78
2022-09-09T03:03:45.293Z,3.00
2022-09-09T03:06:48.812Z,2.72
2022-09-09T03:09:51.878Z,3.10
2022-09-09T03:12:54.865Z,3.00
2022-09-09T03:15:57.684Z,3.12
2022-09-09T03:19:03.120Z,2.90
2022-09-09T03:22:07.268Z,3.03
2022-09-09T03:25:10.801Z,2.85
2022-09-09T03:28:13.685Z,3.00
2022-09-09T03:31:21.051Z,2.75
2022-09-09T03:34:24.139Z,3.10
2022-09-09T03:37:27.482Z,3.17
2022-09-09T03:40:31.994Z,3.20
2022-09-09T03:43:35.295Z,2.95
2022-09-09T03:46:39.269Z,3.08
2022-09-09T03:49:42.316Z,2.97
2022-09-09T03:52:45.172Z,3.15
2022-09-09T03:55:55.643Z,2.55
2022-09-09T03:58:58.787Z,2.50
2022-09-09T04:02:03.222Z,2.80
2022-09-09T04:05:07.959Z,2.92
2022-09-09T04:08:10.745Z,2.72
2022-09-09T04:11:13.894Z,2.80
2022-09-09T04:14:17.125Z,2.55
2022-09-09T04:17:20.625Z,2.90
2022-09-09T04:20:23.403Z,2.75
2022-09-09T04:23:30.424Z,2.70
2022-09-09T04:26:33.841Z,2.30
2022-09-09T04:29:36.717Z,2.37
2022-09-09T04:32:39.371Z,3.00
2022-09-09T04:35:50.733Z,2.92
2022-09-09T04:38:54.610Z,3.00
2022-09-09T04:41:57.467Z,2.78
2022-09-09T04:44:59.950Z,3.00
2022-09-09T04:48:03.715Z,2.60
2022-09-09T04:51:08.149Z,2.53
2022-09-09T04:54:12.713Z,2.50
2022-09-09T04:57:18.807Z,2.47
2022-09-09T05:00:27.145Z,2.50
2022-09-09T05:03:30.883Z,2.97
2022-09-09T05:06:33.745Z,2.95
2022-09-09T05:09:36.396Z,3.00
2022-09-09T05:12:40.344Z,2.70
2022-09-09T05:15:44.091Z,3.10
2022-09-09T05:18:47.711Z,3.83
2022-09-09T05:21:51.051Z,2.62
2022-09-09T05:24:54.218Z,2.55
2022-09-09T05:28:02.809Z,2.50
2022-09-09T05:34:15.375Z,2.95
2022-09-09T05:37:18.180Z,2.72
2022-09-09T05:40:22.445Z,2.80
2022-09-09T05:43:26.816Z,2.60
2022-09-09T05:46:29.485Z,2.35
2022-09-09T05:49:32.837Z,2.50
2022-09-09T05:52:35.552Z,2.92
2022-09-09T05:55:38.844Z,3.12
2022-09-09T05:58:44.728Z,2.45
2022-09-09T06:01:48.714Z,2.47
2022-09-09T06:04:55.661Z,2.20
2022-09-09T06:08:01.436Z,2.53
2022-09-09T06:11:37.001Z,2.12
2022-09-09T06:14:43.160Z,2.55
2022-09-09T06:17:55.659Z,2.15
2022-09-09T06:21:01.519Z,2.40
2022-09-09T06:24:05.472Z,1.98
2022-09-09T06:27:08.307Z,2.17
2022-09-09T06:30:12.266Z,1.92
2022-09-09T06:33:14.965Z,1.90
2022-09-09T06:36:23.266Z,2.35
2022-09-09T06:39:26.897Z,1.77
2022-09-09T06:42:32.536Z,1.55
2022-09-09T06:45:39.464Z,1.73
2022-09-09T06:48:44.052Z,12.60
2022-09-09T06:51:47.378Z,1.30
2022-09-09T06:54:50.922Z,1.95
2022-09-09T06:57:56.924Z,2.92
2022-09-09T07:01:07.979Z,1.45
2022-09-09T07:04:12.094Z,1.80
2022-09-09T07:07:16.497Z,1.62
2022-09-09T07:10:20.369Z,3.05
2022-09-09T07:13:28.087Z,1.60
2022-09-09T07:16:32.919Z,2.20
2022-09-09T07:19:37.128Z,2.20
2022-09-09T07:22:39.968Z,1.80
2022-09-09T07:25:48.565Z,1.80
2022-09-09T07:28:55.751Z,1.70
2022-09-09T07:31:59.942Z,1.60
2022-09-09T07:35:03.836Z,1.62
2022-09-09T07:38:07.700Z,1.58
2022-09-09T07:41:14.423Z,1.50
2022-09-09T07:44:22.455Z,1.45
2022-09-09T07:47:25.815Z,1.70
2022-09-09T07:50:29.136Z,2.22
2022-09-09T07:53:31.984Z,1.87
2022-09-09T07:56:35.293Z,1.67
2022-09-09T07:59:38.631Z,1.58
2022-09-09T08:02:41.998Z,1.33
2022-09-09T08:05:45.448Z,1.15
2022-09-09T08:08:51.797Z,1.50
2022-09-09T08:11:57.423Z,1.48
2022-09-09T08:15:00.133Z,1.90
2022-09-09T08:18:04.615Z,1.23
2022-09-09T08:21:07.985Z,1.60
2022-09-09T08:24:12.411Z,1.60
2022-09-09T08:27:15.205Z,1.23
2022-09-09T08:30:18.296Z,1.30
2022-09-09T08:33:20.956Z,1.55
2022-09-09T08:36:26.824Z,1.23
2022-09-09T08:39:29.779Z,1.23
2022-09-09T08:42:47.903Z,1.20
2022-09-09T08:46:03.051Z,1.50
2022-09-09T08:49:20.282Z,1.50
2022-09-09T08:52:30.213Z,1.70
2022-09-09T08:55:39.862Z,1.30
2022-09-09T08:58:58.088Z,1.10
2022-09-09T09:02:22.325Z,1.20
2022-09-09T09:05:38.742Z,1.00
2022-09-09T09:08:55.375Z,0.82
2022-09-09T09:12:02.091Z,1.23
2022-09-09T09:18:16.895Z,1.08
2022-09-09T09:21:31.021Z,1.00
2022-09-09T09:24:50.707Z,2.60
2022-09-09T09:28:33.816Z,1.30
2022-09-09T09:31:37.569Z,1.00
2022-09-09T09:34:40.608Z,0.85
2022-09-09T09:41:08.423Z,0.90
2022-09-09T09:44:24.594Z,0.90
2022-09-09T09:47:27.997Z,0.93
2022-09-09T09:50:35.957Z,1.27
2022-09-09T09:53:39.974Z,1.02
2022-09-09T09:56:45.131Z,1.65
2022-09-09T09:59:48.331Z,0.80
2022-09-09T10:02:53.545Z,0.73
2022-09-09T10:05:57.333Z,0.73
2022-09-09T10:09:00.583Z,0.80
2022-09-09T10:12:12.560Z,0.75
2022-09-09T10:15:39.475Z,0.82
2022-09-09T10:18:45.374Z,1.00
2022-09-09T10:22:07.682Z,0.80
2022-09-09T10:25:23.341Z,0.90
2022-09-09T10:28:59.179Z,1.05
2022-09-09T10:32:18.874Z,0.82
2022-09-09T10:35:32.338Z,0.90
2022-09-09T10:38:53.938Z,0.85
2022-09-09T10:42:17.754Z,0.75
2022-09-09T10:45:45.050Z,1.15
2022-09-09T10:49:12.122Z,0.93
2022-09-09T10:52:24.061Z,1.00
2022-09-09T10:55:40.470Z,1.00
2022-09-09T10:58:51.874Z,0.90
2022-09-09T11:02:00.384Z,0.98
2022-09-09T11:05:10.546Z,1.15
2022-09-09T11:08:25.683Z,0.90
2022-09-09T11:11:35.942Z,1.00
2022-09-09T11:14:44.428Z,0.90
2022-09-09T11:17:51.780Z,0.70
2022-09-09T11:21:00.891Z,1.00
2022-09-09T11:24:11.494Z,0.85
2022-09-09T11:27:20.050Z,1.40
2022-09-09T11:30:55.048Z,0.90
2022-09-09T11:34:15.760Z,0.85
2022-09-09T11:37:39.772Z,1.00
2022-09-09T11:40:42.952Z,0.90
2022-09-09T11:43:52.960Z,0.77
2022-09-09T11:46:55.499Z,0.80
2022-09-09T11:50:16.569Z,0.77
2022-09-09T11:53:23.925Z,0.68
2022-09-09T11:56:34.762Z,0.60
2022-09-09T11:59:37.657Z,0.70
2022-09-09T12:02:51.127Z,0.70
2022-09-09T12:05:54.521Z,0.90
2022-09-09T12:09:06.498Z,1.17
2022-09-09T12:12:12.492Z,2.47
2022-09-09T12:15:30.075Z,2.67
2022-09-09T12:18:35.007Z,1.00
2022-09-09T12:21:58.881Z,0.90
2022-09-09T12:25:23.183Z,0.80
2022-09-09T12:28:41.710Z,1.17
2022-09-09T12:32:03.174Z,0.62
2022-09-09T12:35:24.267Z,0.88
2022-09-09T12:38:38.216Z,0.82
2022-09-09T12:41:40.785Z,0.93
2022-09-09T12:45:03.866Z,0.57
2022-09-09T12:48:16.701Z,0.90
2022-09-09T12:51:26.197Z,1.12
2022-09-09T12:54:29.158Z,0.80
2022-09-09T12:57:37.391Z,0.90
2022-09-09T13:00:53.595Z,0.80
2022-09-09T13:03:57.565Z,0.60
2022-09-09T13:07:11.028Z,0.52
2022-09-09T13:10:21.462Z,1.33
2022-09-09T13:13:42.645Z,0.85
2022-09-09T13:16:59.926Z,0.90
2022-09-09T13:20:03.641Z,0.95
2022-09-09T13:23:06.815Z,0.70
2022-09-09T13:26:27.228Z,0.77
2022-09-09T13:29:32.023Z,1.20
2022-09-09T13:32:34.498Z,0.70
2022-09-09T13:35:56.686Z,0.80
2022-09-09T13:39:04.940Z,1.20
2022-09-09T13:42:26.707Z,0.98
2022-09-09T13:45:29.284Z,0.75
2022-09-09T13:48:32.833Z,0.68
2022-09-09T13:51:38.115Z,1.25
2022-09-09T13:54:42.716Z,0.68
2022-09-09T13:58:03.341Z,0.60
2022-09-09T14:01:06.588Z,0.68
2022-09-09T14:04:10.075Z,0.60
2022-09-09T14:07:15.084Z,0.90
2022-09-09T14:10:18.228Z,0.80
2022-09-09T14:13:22.072Z,0.70
2022-09-09T14:16:25.021Z,0.80
2022-09-09T14:19:27.547Z,0.77
2022-09-09T14:22:30.276Z,0.60
2022-09-09T14:25:32.785Z,0.60
2022-09-09T14:28:54.202Z,0.70
2022-09-09T14:31:57.154Z,0.70
2022-09-09T14:35:00.422Z,1.27
2022-09-09T14:38:04.743Z,0.80
2022-09-09T14:41:08.504Z,0.90
2022-09-09T14:44:11.255Z,0.65
2022-09-09T14:47:13.970Z,0.60
2022-09-09T14:50:16.631Z,0.70
2022-09-09T14:53:19.524Z,2.08
2022-09-09T14:56:25.112Z,0.65
2022-09-09T14:59:27.879Z,0.70
2022-09-09T15:02:31.004Z,0.47
2022-09-09T15:05:34.136Z,0.88
2022-09-09T15:08:42.847Z,0.60
2022-09-09T15:11:46.097Z,0.70
2022-09-09T15:14:49.399Z,0.80
2022-09-09T15:17:52.137Z,0.60
2022-09-09T15:20:54.964Z,0.60
2022-09-09T15:23:58.490Z,2.92
2022-09-09T15:27:02.041Z,0.70
2022-09-09T15:30:05.155Z,0.70
2022-09-09T15:33:12.946Z,0.55
2022-09-09T15:36:17.198Z,0.88
2022-09-09T15:39:20.052Z,0.40
2022-09-09T15:42:24.932Z,1.23
2022-09-09T15:45:31.966Z,0.80
2022-09-09T15:48:34.712Z,0.60
2022-09-09T15:51:44.242Z,0.60
2022-09-09T15:54:47.624Z,0.40
2022-09-09T15:57:50.099Z,0.60
2022-09-09T16:00:52.936Z,0.68
2022-09-09T16:03:55.844Z,0.65
2022-09-09T16:07:04.521Z,0.62
2022-09-09T16:10:08.501Z,0.55
2022-09-09T16:13:14.436Z,0.52
2022-09-09T16:16:20.614Z,0.57
2022-09-09T16:19:23.170Z,0.60
2022-09-09T16:22:25.983Z,0.52
2022-09-09T16:25:29.128Z,0.50
2022-09-09T16:28:32.400Z,0.52
2022-09-09T16:31:35.017Z,0.73
2022-09-09T16:34:37.941Z,0.60
2022-09-09T16:37:40.441Z,0.52
2022-09-09T16:40:43.614Z,0.82
2022-09-09T16:43:46.107Z,0.80
2022-09-09T16:46:56.726Z,0.77
2022-09-09T16:50:02.227Z,0.90
2022-09-09T16:53:07.410Z,1.00
2022-09-09T16:56:13.193Z,0.75
2022-09-09T16:59:20.115Z,1.27
2022-09-09T17:02:22.738Z,1.42
2022-09-09T17:05:26.203Z,0.90
2022-09-09T17:08:32.113Z,0.70
2022-09-09T17:11:35.949Z,1.15
2022-09-09T17:14:39.356Z,1.00
2022-09-09T17:17:46.157Z,1.12
2022-09-09T17:20:48.756Z,1.30
2022-09-09T17:23:51.892Z,0.90
2022-09-09T17:26:55.368Z,0.90
2022-09-09T17:29:59.540Z,1.20
2022-09-09T17:33:02.108Z,0.95
2022-09-09T17:36:26.049Z,1.33
2022-09-09T17:39:28.667Z,1.00
2022-09-09T17:42:31.979Z,1.08
2022-09-09T17:45:34.559Z,2.28
2022-09-09T17:48:38.497Z,1.40
2022-09-09T17:51:42.827Z,1.67
2022-09-09T17:54:45.680Z,1.40
2022-09-09T17:57:48.324Z,1.55
2022-09-09T18:00:51.318Z,1.67
2022-09-09T18:03:57.430Z,1.58
2022-09-09T18:06:59.986Z,1.42
2022-09-09T18:10:03.077Z,1.80
2022-09-09T18:13:06.921Z,1.50
2022-09-09T18:16:11.368Z,1.67
2022-09-09T18:19:16.577Z,1.42
2022-09-09T18:22:19.876Z,1.42
2022-09-09T18:25:22.435Z,2.25
2022-09-09T18:28:27.487Z,1.98
2022-09-09T18:31:30.705Z,2.03
2022-09-09T18:34:33.589Z,1.75
2022-09-09T18:37:37.893Z,1.05
2022-09-09T18:40:42.098Z,1.20
2022-09-09T18:43:45.392Z,1.70
2022-09-09T18:46:49.201Z,1.75
2022-09-09T18:49:51.850Z,1.42
2022-09-09T18:52:54.549Z,1.40
2022-09-09T18:56:08.391Z,1.50
2022-09-09T18:59:14.031Z,1.20
2022-09-09T19:02:16.490Z,2.08
2022-09-09T19:05:19.294Z,2.45
2022-09-09T19:08:22.079Z,1.48
2022-09-09T19:11:26.718Z,1.67
2022-09-09T19:14:30.136Z,1.50
2022-09-09T19:17:34.376Z,1.30
2022-09-09T19:20:38.200Z,1.42
2022-09-09T19:23:43.525Z,1.85
2022-09-09T19:26:51.147Z,1.70
2022-09-09T19:32:59.725Z,1.67
2022-09-09T19:36:07.096Z,2.25
2022-09-09T19:39:10.503Z,2.33
2022-09-09T19:42:13.340Z,2.62
2022-09-09T19:45:15.940Z,2.15
2022-09-09T19:48:21.373Z,3.28
2022-09-09T19:51:25.654Z,3.00
2022-09-09T19:54:28.809Z,5.03
2022-09-09T19:57:31.435Z,2.78
2022-09-09T20:00:39.347Z,4.07
2022-09-09T20:03:45.105Z,4.30
2022-09-09T20:06:47.636Z,4.80
2022-09-09T20:09:54.158Z,5.15
2022-09-09T20:12:56.568Z,4.43
2022-09-09T20:16:01.181Z,4.00
2022-09-09T20:19:07.008Z,4.60
2022-09-09T20:22:09.883Z,4.22
2022-09-09T20:25:14.417Z,3.97
2022-09-09T20:28:17.320Z,3.58
2022-09-09T20:31:23.776Z,4.05
2022-09-09T20:34:28.132Z,4.25
2022-09-09T20:37:31.680Z,4.22
2022-09-09T20:40:38.664Z,4.40
2022-09-09T20:43:47.417Z,6.93
2022-09-09T20:46:55.195Z,5.55
2022-09-09T20:49:58.521Z,5.57
2022-09-09T20:53:02.586Z,6.00
2022-09-09T20:56:05.674Z,5.70
2022-09-09T20:59:12.903Z,6.12
2022-09-09T21:02:15.405Z,5.85
2022-09-09T21:05:23.795Z,5.65
2022-09-09T21:08:28.003Z,6.22
2022-09-09T21:11:31.112Z,5.57
2022-09-09T21:14:33.597Z,6.18
2022-09-09T21:17:36.398Z,5.55
2022-09-09T21:20:39.134Z,6.05
2022-09-09T21:23:42.072Z,6.37
2022-09-09T21:26:44.561Z,6.50
2022-09-09T21:29:47.667Z,6.40
2022-09-09T21:32:50.152Z,6.68
2022-09-09T21:35:53.034Z,5.75
2022-09-09T21:38:56.759Z,6.53
2022-09-09T21:42:01.288Z,5.40
2022-09-09T21:45:03.922Z,4.50
2022-09-09T21:48:09.097Z,5.10
2022-09-09T21:51:14.922Z,5.53
2022-09-09T21:54:18.952Z,5.87
2022-09-09T21:57:24.914Z,4.90
2022-09-09T22:00:28.368Z,5.68
2022-09-09T22:03:31.068Z,5.82
2022-09-09T22:06:34.160Z,5.47
2022-09-09T22:09:36.960Z,5.95
2022-09-09T22:12:39.596Z,5.70
2022-09-09T22:15:44.505Z,5.35
2022-09-09T22:18:56.750Z,6.15
2022-09-09T22:21:59.658Z,6.20
2022-09-09T22:25:02.106Z,6.07
2022-09-09T22:28:07.686Z,5.45
2022-09-09T22:31:10.142Z,5.28
2022-09-09T22:34:15.645Z,5.50
2022-09-09T22:37:18.433Z,4.62
2022-09-09T22:40:21.317Z,4.70
2022-09-09T22:43:24.003Z,5.20
2022-09-09T22:46:26.787Z,7.07
2022-09-09T22:49:29.368Z,4.95
2022-09-09T22:52:32.306Z,5.25
2022-09-09T22:55:34.771Z,5.32
2022-09-09T22:58:37.659Z,5.43
2022-09-09T23:01:40.288Z,5.37
2022-09-09T23:04:43.944Z,4.62
2022-09-09T23:07:47.354Z,4.90
2022-09-09T23:10:50.530Z,4.35
2022-09-09T23:13:54.661Z,4.85
2022-09-09T23:16:57.529Z,4.53
2022-09-09T23:20:00.023Z,4.57
2022-09-09T23:23:02.718Z,4.65
2022-09-09T23:26:07.111Z,4.78
2022-09-09T23:29:14.255Z,5.45
2022-09-09T23:32:17.640Z,5.55
2022-09-09T23:35:20.371Z,4.55
2022-09-09T23:38:22.883Z,5.07
2022-09-09T23:41:26.127Z,5.55
2022-09-09T23:44:28.760Z,5.70
2022-09-09T23:47:31.438Z,5.78
2022-09-09T23:50:33.983Z,5.53
2022-09-09T23:53:37.678Z,5.12
2022-09-09T23:56:42.361Z,5.45
2022-09-09T23:59:45.308Z,5.53
